Terminal Aerodrome Forecast
Issued by NWS

Home | Current Version | Previous Version | Text Only | Print | Product List | Glossary On
Versions: 1 2 3 4 5 6 7 8 9 10 11 12 13 14 15 16 17 18 19 20 21 22 23
000
FTUS46 KEKA 301126
TAFCEC
TAF
KCEC 301126Z 3012/3112 VRB03KT 5SM BR SCT003
      TEMPO 3012/3016 30005KT 1SM BR BKN002
     FM301600 33010KT P6SM SKC
     FM301900 34016G25KT P6SM SKC
     FM310600 16012G20KT 6SM BR SCT006
     FM310800 VRB05KT 2SM BR BKN006=

USA.gov is the U.S. government's official web portal to all federal, state and local government web resources and services.